createdAt,value
2022-08-17T00:01:51.869Z,3.50
2022-08-17T00:04:21.035Z,3.78
2022-08-17T00:06:49.550Z,3.85
2022-08-17T00:09:18.882Z,3.17
2022-08-17T00:12:41.309Z,3.40
2022-08-17T00:14:35.914Z,4.05
2022-08-17T00:17:04.500Z,3.25
2022-08-17T00:19:32.534Z,3.47
2022-08-17T00:22:32.592Z,3.70
2022-08-17T00:24:47.292Z,3.63
2022-08-17T00:27:13.968Z,3.40
2022-08-17T00:29:41.053Z,3.67
2022-08-17T00:33:13.884Z,4.30
2022-08-17T00:34:54.426Z,4.10
2022-08-17T00:37:27.606Z,4.57
2022-08-17T00:39:54.277Z,3.47
2022-08-17T00:42:20.931Z,3.33
2022-08-17T00:44:47.667Z,3.67
2022-08-17T00:47:14.291Z,3.58
2022-08-17T00:49:41.169Z,3.60
2022-08-17T00:52:16.597Z,3.60
2022-08-17T00:54:46.884Z,3.63
2022-08-17T00:57:21.087Z,4.25
2022-08-17T01:00:03.062Z,3.88
2022-08-17T01:02:43.077Z,3.80
2022-08-17T01:05:18.585Z,4.00
2022-08-17T01:07:47.860Z,3.92
2022-08-17T01:10:59.083Z,3.90
2022-08-17T01:13:05.351Z,3.45
2022-08-17T01:15:38.689Z,4.03
2022-08-17T01:18:07.881Z,3.88
2022-08-17T01:20:46.655Z,4.28
2022-08-17T01:23:21.255Z,3.78
2022-08-17T01:25:51.295Z,4.72
2022-08-17T01:28:52.477Z,4.25
2022-08-17T01:31:08.279Z,4.80
2022-08-17T01:33:36.123Z,3.97
2022-08-17T01:36:04.090Z,4.95
2022-08-17T01:38:31.783Z,3.97
2022-08-17T01:41:03.092Z,4.68
2022-08-17T01:43:35.027Z,5.53
2022-08-17T01:46:04.114Z,5.10
2022-08-17T01:48:33.665Z,4.65
2022-08-17T01:51:01.175Z,4.97
2022-08-17T01:53:34.208Z,5.57
2022-08-17T01:56:13.283Z,4.35
2022-08-17T01:58:42.215Z,4.30
2022-08-17T02:01:10.586Z,5.28
2022-08-17T02:03:38.268Z,5.18
2022-08-17T02:06:06.293Z,5.93
2022-08-17T02:09:01.482Z,5.35
2022-08-17T02:11:32.280Z,4.82
2022-08-17T02:14:02.437Z,5.47
2022-08-17T02:16:36.617Z,5.72
2022-08-17T02:19:11.100Z,5.30
2022-08-17T02:21:39.175Z,5.35
2022-08-17T02:24:10.848Z,4.93
2022-08-17T02:26:37.750Z,5.22
2022-08-17T02:29:04.578Z,4.97
2022-08-17T02:31:31.306Z,5.38
2022-08-17T02:34:03.892Z,4.68
2022-08-17T02:36:34.089Z,5.30
2022-08-17T02:39:11.947Z,5.22
2022-08-17T02:41:40.840Z,4.93
2022-08-17T02:44:08.116Z,5.07
2022-08-17T02:46:34.934Z,4.47
2022-08-17T02:49:01.740Z,4.82
2022-08-17T02:51:28.502Z,5.55
2022-08-17T02:54:40.152Z,5.32
2022-08-17T02:56:42.836Z,4.88
2022-08-17T02:59:09.468Z,5.60
2022-08-17T03:01:36.262Z,5.65
2022-08-17T03:04:03.086Z,6.00
2022-08-17T03:06:31.683Z,5.03
2022-08-17T03:08:58.417Z,5.65
2022-08-17T03:11:25.042Z,5.20
2022-08-17T03:13:51.681Z,5.25
2022-08-17T03:16:18.368Z,4.63
2022-08-17T03:18:45.007Z,5.57
2022-08-17T03:21:11.943Z,5.82
2022-08-17T03:23:42.149Z,5.65
2022-08-17T03:26:12.277Z,4.75
2022-08-17T03:28:42.353Z,5.90
2022-08-17T03:31:08.954Z,5.72
2022-08-17T03:33:35.640Z,5.35
2022-08-17T03:36:02.213Z,4.97
2022-08-17T03:38:28.934Z,5.15
2022-08-17T03:41:06.458Z,5.82
2022-08-17T03:43:34.462Z,4.72
2022-08-17T03:46:28.810Z,5.53
2022-08-17T03:49:23.926Z,5.78
2022-08-17T03:52:09.777Z,4.97
2022-08-17T03:54:55.692Z,5.47
2022-08-17T03:57:23.112Z,5.72
2022-08-17T03:59:50.341Z,6.03
2022-08-17T04:02:24.030Z,5.88
2022-08-17T04:04:51.323Z,5.72
2022-08-17T04:07:21.071Z,5.97
2022-08-17T04:09:48.101Z,5.78
2022-08-17T04:12:17.771Z,6.10
2022-08-17T04:14:53.401Z,5.82
2022-08-17T04:17:27.658Z,6.25
2022-08-17T04:19:54.930Z,6.10
2022-08-17T04:22:30.558Z,5.50
2022-08-17T04:25:14.244Z,5.80
2022-08-17T04:27:41.227Z,5.28
2022-08-17T04:30:08.648Z,5.50
2022-08-17T04:33:08.762Z,5.03
2022-08-17T04:35:45.537Z,5.97
2022-08-17T04:38:17.906Z,6.75
2022-08-17T04:41:03.628Z,6.68
2022-08-17T04:46:00.877Z,6.97
2022-08-17T04:48:36.946Z,6.30
2022-08-17T04:51:07.098Z,5.50
2022-08-17T04:53:34.205Z,5.78
2022-08-17T04:56:00.862Z,5.70
2022-08-17T04:58:27.951Z,5.60
2022-08-17T05:00:54.592Z,6.28
2022-08-17T05:03:21.301Z,5.63
2022-08-17T05:05:50.000Z,6.00
2022-08-17T05:08:19.230Z,5.68
2022-08-17T05:10:47.146Z,5.38
2022-08-17T05:13:17.401Z,5.82
2022-08-17T05:15:47.901Z,5.60
2022-08-17T05:18:15.718Z,5.63
2022-08-17T05:20:42.856Z,5.47
2022-08-17T05:23:13.812Z,5.53
2022-08-17T05:25:47.343Z,5.80
2022-08-17T05:28:16.798Z,6.18
2022-08-17T05:30:46.313Z,5.95
2022-08-17T05:33:22.439Z,5.55
2022-08-17T05:35:51.798Z,5.38
2022-08-17T05:38:21.543Z,6.18
2022-08-17T05:40:48.533Z,6.45
2022-08-17T05:43:21.757Z,6.25
2022-08-17T05:46:02.843Z,6.57
2022-08-17T05:48:40.091Z,6.53
2022-08-17T05:51:27.960Z,6.13
2022-08-17T05:54:15.603Z,6.03
2022-08-17T05:56:42.364Z,6.13
2022-08-17T05:59:33.619Z,6.18
2022-08-17T06:02:00.230Z,5.88
2022-08-17T06:04:33.965Z,5.80
2022-08-17T06:07:06.630Z,4.65
2022-08-17T06:09:45.970Z,4.45
2022-08-17T06:12:23.555Z,4.88
2022-08-17T06:15:10.695Z,4.40
2022-08-17T06:17:37.921Z,4.05
2022-08-17T06:20:14.238Z,4.25
2022-08-17T06:22:47.700Z,3.60
2022-08-17T06:25:17.893Z,3.83
2022-08-17T06:27:53.577Z,3.95
2022-08-17T06:30:25.674Z,3.90
2022-08-17T06:32:55.516Z,3.30
2022-08-17T06:35:34.044Z,3.63
2022-08-17T06:38:04.586Z,3.30
2022-08-17T06:40:59.022Z,3.95
2022-08-17T06:43:43.986Z,3.25
2022-08-17T06:46:21.513Z,3.10
2022-08-17T06:51:39.454Z,3.40
2022-08-17T06:54:10.267Z,2.97
2022-08-17T06:56:53.233Z,3.35
2022-08-17T06:59:36.252Z,3.30
2022-08-17T07:02:50.927Z,3.10
2022-08-17T07:05:24.225Z,2.58
2022-08-17T07:08:03.606Z,2.90
2022-08-17T07:10:46.063Z,3.20
2022-08-17T07:14:03.425Z,3.40
2022-08-17T07:16:42.274Z,2.65
2022-08-17T07:19:10.940Z,3.47
2022-08-17T07:21:50.269Z,3.08
2022-08-17T07:24:47.302Z,3.30
2022-08-17T07:27:31.109Z,3.17
2022-08-17T07:30:08.067Z,3.55
2022-08-17T07:32:58.391Z,3.53
2022-08-17T07:35:41.312Z,4.18
2022-08-17T07:38:29.653Z,3.35
2022-08-17T07:41:02.766Z,4.30
2022-08-17T07:43:35.228Z,4.82
2022-08-17T07:46:29.952Z,3.63
2022-08-17T07:49:18.434Z,3.85
2022-08-17T07:51:45.654Z,3.80
2022-08-17T07:54:15.441Z,3.67
2022-08-17T07:56:49.822Z,4.18
2022-08-17T07:59:23.396Z,3.47
2022-08-17T08:01:56.397Z,3.50
2022-08-17T08:04:58.840Z,3.70
2022-08-17T08:07:30.303Z,3.88
2022-08-17T08:10:02.882Z,4.03
2022-08-17T08:12:40.152Z,3.45
2022-08-17T08:15:35.356Z,3.72
2022-08-17T08:18:05.097Z,3.60
2022-08-17T08:20:53.100Z,3.20
2022-08-17T08:23:42.843Z,3.85
2022-08-17T08:26:27.562Z,3.63
2022-08-17T08:28:54.751Z,3.17
2022-08-17T08:31:42.322Z,2.85
2022-08-17T08:34:45.441Z,11.02
2022-08-17T08:37:36.686Z,3.63
2022-08-17T08:40:15.402Z,2.95
2022-08-17T08:42:52.761Z,3.33
2022-08-17T08:45:35.061Z,3.15
2022-08-17T08:48:23.161Z,3.30
2022-08-17T08:51:32.854Z,2.88
2022-08-17T08:54:26.597Z,3.28
2022-08-17T09:00:15.506Z,3.30
2022-08-17T09:03:10.057Z,3.70
2022-08-17T09:05:45.574Z,2.40
2022-08-17T09:08:18.089Z,2.75
2022-08-17T09:10:44.614Z,2.65
2022-08-17T09:13:45.508Z,2.40
2022-08-17T09:16:33.174Z,2.85
2022-08-17T09:19:10.753Z,2.83
2022-08-17T09:21:48.609Z,2.78
2022-08-17T09:24:35.591Z,3.40
2022-08-17T09:27:13.834Z,3.30
2022-08-17T09:29:49.069Z,3.28
2022-08-17T09:32:38.223Z,3.15
2022-08-17T09:35:25.044Z,3.17
2022-08-17T09:38:13.617Z,2.95
2022-08-17T09:40:40.160Z,2.78
2022-08-17T09:43:41.104Z,3.28
2022-08-17T09:46:21.961Z,3.28
2022-08-17T09:49:03.246Z,3.50
2022-08-17T09:51:39.988Z,3.45
2022-08-17T09:54:38.029Z,3.58
2022-08-17T09:57:34.972Z,3.42
2022-08-17T10:00:09.974Z,3.05
2022-08-17T10:03:24.096Z,3.17
2022-08-17T10:06:07.721Z,2.50
2022-08-17T10:08:52.422Z,3.40
2022-08-17T10:12:11.954Z,3.28
2022-08-17T10:15:07.986Z,3.50
2022-08-17T10:18:08.502Z,3.40
2022-08-17T10:21:33.319Z,3.85
2022-08-17T10:24:28.174Z,3.38
2022-08-17T10:26:59.027Z,3.67
2022-08-17T10:29:46.223Z,3.88
2022-08-17T10:32:33.628Z,3.83
2022-08-17T10:35:00.233Z,3.83
2022-08-17T10:38:04.119Z,4.50
2022-08-17T10:40:43.749Z,3.97
2022-08-17T10:43:38.452Z,4.25
2022-08-17T10:46:42.500Z,3.72
2022-08-17T10:49:18.185Z,4.07
2022-08-17T10:51:48.005Z,3.53
2022-08-17T10:54:48.806Z,3.95
2022-08-17T10:57:33.745Z,3.83
2022-08-17T11:00:02.356Z,3.75
2022-08-17T11:02:51.796Z,4.47
2022-08-17T11:05:59.860Z,4.50
2022-08-17T11:08:56.877Z,5.00
2022-08-17T11:11:50.827Z,4.78
2022-08-17T11:14:39.876Z,6.22
2022-08-17T11:17:14.490Z,6.70
2022-08-17T11:19:56.500Z,5.80
2022-08-17T11:22:31.313Z,6.40
2022-08-17T11:25:31.404Z,6.57
2022-08-17T11:28:09.251Z,5.90
2022-08-17T11:30:49.690Z,6.60
2022-08-17T11:33:36.895Z,6.15
2022-08-17T11:36:31.475Z,6.60
2022-08-17T11:39:22.458Z,6.78
2022-08-17T11:42:18.171Z,6.50
2022-08-17T11:45:31.922Z,6.90
2022-08-17T11:48:30.693Z,8.70
2022-08-17T11:51:18.507Z,8.30
2022-08-17T11:53:45.722Z,9.15
2022-08-17T11:56:38.212Z,7.72
2022-08-17T11:59:33.785Z,8.27
2022-08-17T12:02:02.943Z,8.90
2022-08-17T12:04:34.885Z,10.20
2022-08-17T12:07:18.081Z,9.20
2022-08-17T12:09:50.236Z,9.15
2022-08-17T12:12:22.749Z,9.25
2022-08-17T12:15:11.417Z,11.23
2022-08-17T12:17:40.658Z,10.60
2022-08-17T12:20:23.027Z,8.85
2022-08-17T12:23:05.393Z,11.02
2022-08-17T12:25:46.265Z,11.10
2022-08-17T12:28:25.333Z,10.48
2022-08-17T12:30:52.933Z,10.70
2022-08-17T12:33:25.483Z,11.48
2022-08-17T12:38:33.011Z,11.32
2022-08-17T12:41:21.077Z,10.93
2022-08-17T12:43:58.564Z,11.77
2022-08-17T12:46:25.705Z,11.32
2022-08-17T12:48:58.772Z,11.40
2022-08-17T12:51:26.252Z,11.80
2022-08-17T12:53:54.957Z,11.18
2022-08-17T12:56:21.818Z,12.35
2022-08-17T12:58:53.964Z,12.43
2022-08-17T13:01:23.259Z,12.05
2022-08-17T13:03:53.557Z,12.80
2022-08-17T13:06:48.431Z,12.90
2022-08-17T13:09:35.971Z,12.85
2022-08-17T13:12:08.415Z,12.32
2022-08-17T13:14:35.246Z,13.18
2022-08-17T13:17:07.368Z,14.57
2022-08-17T13:19:48.284Z,15.27
2022-08-17T13:22:15.020Z,16.23
2022-08-17T13:24:56.970Z,14.90
2022-08-17T13:27:27.514Z,14.52
2022-08-17T13:30:01.377Z,16.38
2022-08-17T13:32:31.056Z,18.77
2022-08-17T13:35:14.198Z,16.40
2022-08-17T13:37:58.721Z,16.95
2022-08-17T13:40:29.672Z,17.02
2022-08-17T13:42:57.906Z,16.90
2022-08-17T13:45:34.930Z,15.80
2022-08-17T13:48:10.855Z,17.30
2022-08-17T13:50:43.585Z,15.88
2022-08-17T13:53:15.872Z,17.17
2022-08-17T13:55:53.457Z,17.85
2022-08-17T13:58:27.120Z,18.90
2022-08-17T14:00:53.882Z,19.42
2022-08-17T14:03:20.751Z,16.83
2022-08-17T14:05:50.036Z,19.65
2022-08-17T14:08:19.745Z,16.63
2022-08-17T14:10:57.697Z,18.23
2022-08-17T14:13:24.533Z,17.02
2022-08-17T14:15:56.153Z,20.13
2022-08-17T14:18:55.307Z,19.05
2022-08-17T14:21:11.045Z,18.70
2022-08-17T14:23:37.751Z,20.35
2022-08-17T14:26:05.186Z,19.85
2022-08-17T14:28:32.214Z,19.80
2022-08-17T14:31:00.748Z,19.25
2022-08-17T14:33:28.392Z,21.42
2022-08-17T14:35:55.814Z,19.73
2022-08-17T14:38:22.676Z,17.92
2022-08-17T14:40:49.634Z,18.83
2022-08-17T14:43:17.760Z,18.20
2022-08-17T14:45:44.531Z,18.40
2022-08-17T14:48:11.248Z,18.77
2022-08-17T14:50:42.647Z,19.17
2022-08-17T14:53:12.041Z,19.88
2022-08-17T14:55:42.102Z,17.25
2022-08-17T14:58:09.249Z,20.08
2022-08-17T15:00:36.776Z,20.55
2022-08-17T15:03:04.023Z,18.25
2022-08-17T15:05:34.020Z,19.98
2022-08-17T15:08:02.616Z,22.90
2022-08-17T15:10:30.698Z,21.02
2022-08-17T15:12:57.782Z,20.02
2022-08-17T15:15:24.400Z,19.45
2022-08-17T15:17:51.516Z,20.45
2022-08-17T15:20:24.851Z,20.52
2022-08-17T15:22:55.540Z,20.10
2022-08-17T15:25:23.987Z,18.80
2022-08-17T15:27:50.784Z,20.38
2022-08-17T15:30:17.690Z,19.30
2022-08-17T15:32:50.676Z,20.30
2022-08-17T15:35:27.995Z,17.92
2022-08-17T15:38:11.074Z,17.20
2022-08-17T15:40:48.296Z,19.48
2022-08-17T15:43:24.827Z,19.67
2022-08-17T15:46:12.449Z,18.42
2022-08-17T15:48:42.039Z,19.05
2022-08-17T15:51:21.130Z,17.83
2022-08-17T15:53:54.251Z,16.52
2022-08-17T15:56:21.278Z,18.15
2022-08-17T15:58:48.547Z,16.48
2022-08-17T16:01:51.806Z,17.98
2022-08-17T16:04:26.704Z,16.42
2022-08-17T16:06:52.632Z,16.02
2022-08-17T16:09:19.248Z,17.20
2022-08-17T16:11:45.974Z,19.05
2022-08-17T16:14:20.273Z,17.90
2022-08-17T16:16:47.472Z,15.50
2022-08-17T16:19:14.277Z,15.38
2022-08-17T16:21:42.780Z,14.27
2022-08-17T16:24:13.388Z,14.32
2022-08-17T16:26:40.542Z,15.55
2022-08-17T16:29:07.740Z,15.15
2022-08-17T16:31:36.013Z,16.65
2022-08-17T16:34:16.699Z,16.67
2022-08-17T16:36:55.266Z,15.52
2022-08-17T16:39:29.608Z,17.33
2022-08-17T16:41:57.385Z,15.90
2022-08-17T16:44:27.372Z,16.52
2022-08-17T16:46:54.312Z,16.52
2022-08-17T16:49:35.195Z,15.50
2022-08-17T16:52:04.216Z,15.35
2022-08-17T16:54:31.016Z,16.98
2022-08-17T16:56:57.690Z,15.70
2022-08-17T16:59:31.029Z,17.45
2022-08-17T17:02:04.716Z,17.40
2022-08-17T17:04:35.046Z,16.95
2022-08-17T17:07:33.605Z,19.40
2022-08-17T17:10:16.919Z,18.25
2022-08-17T17:13:01.547Z,18.75
2022-08-17T17:15:44.761Z,17.23
2022-08-17T17:18:14.736Z,18.00
2022-08-17T17:20:52.824Z,17.35
2022-08-17T17:23:47.771Z,18.10
2022-08-17T17:26:38.411Z,17.65
2022-08-17T17:29:24.299Z,17.48
2022-08-17T17:32:13.568Z,17.58
2022-08-17T17:34:50.878Z,18.00
2022-08-17T17:37:27.188Z,19.23
2022-08-17T17:39:59.904Z,19.27
2022-08-17T17:42:31.401Z,19.52
2022-08-17T17:45:16.778Z,18.90
2022-08-17T17:47:44.496Z,18.10
2022-08-17T17:50:11.387Z,18.45
2022-08-17T17:52:47.487Z,18.30
2022-08-17T17:55:22.993Z,18.27
2022-08-17T17:58:04.773Z,18.02
2022-08-17T18:00:46.395Z,17.90
2022-08-17T18:03:22.290Z,17.92
2022-08-17T18:06:13.471Z,16.38
2022-08-17T18:09:19.707Z,15.68
2022-08-17T18:12:09.123Z,15.73
2022-08-17T18:14:58.284Z,16.42
2022-08-17T18:17:24.970Z,16.30
2022-08-17T18:19:55.255Z,16.35
2022-08-17T18:22:23.953Z,15.75
2022-08-17T18:24:55.826Z,15.07
2022-08-17T18:27:38.220Z,14.90
2022-08-17T18:30:14.323Z,16.90
2022-08-17T18:32:43.611Z,16.58
2022-08-17T18:35:16.055Z,16.77
2022-08-17T18:37:48.908Z,15.23
2022-08-17T18:40:23.312Z,15.80
2022-08-17T18:43:27.790Z,15.02
2022-08-17T18:46:39.016Z,12.65
2022-08-17T18:49:25.302Z,13.77
2022-08-17T18:52:21.551Z,14.38
2022-08-17T18:55:04.074Z,14.95
2022-08-17T18:57:59.608Z,14.88
2022-08-17T19:00:26.435Z,13.73
2022-08-17T19:02:56.861Z,14.10
2022-08-17T19:05:36.494Z,15.40
2022-08-17T19:08:33.197Z,15.43
2022-08-17T19:11:19.150Z,14.93
2022-08-17T19:13:52.878Z,15.70
2022-08-17T19:16:30.462Z,16.60
2022-08-17T19:19:26.469Z,17.80
2022-08-17T19:22:02.790Z,16.88
2022-08-17T19:24:33.553Z,17.23
2022-08-17T19:27:19.627Z,16.05
2022-08-17T19:29:57.509Z,16.20
2022-08-17T19:32:31.566Z,16.95
2022-08-17T19:34:58.257Z,15.90
2022-08-17T19:37:52.707Z,13.32
2022-08-17T19:40:52.670Z,15.20
2022-08-17T19:43:25.253Z,14.65
2022-08-17T19:46:19.044Z,15.95
2022-08-17T19:48:56.341Z,14.50
2022-08-17T19:51:53.886Z,15.43
2022-08-17T19:54:30.967Z,17.83
2022-08-17T19:57:12.181Z,16.92
2022-08-17T19:59:56.799Z,16.05
2022-08-17T20:02:47.623Z,14.10
2022-08-17T20:05:30.761Z,13.95
2022-08-17T20:08:07.369Z,15.30
2022-08-17T20:10:47.366Z,15.32
2022-08-17T20:13:49.609Z,16.90
2022-08-17T20:16:18.115Z,15.95
2022-08-17T20:19:00.824Z,17.05
2022-08-17T20:21:41.252Z,16.10
2022-08-17T20:24:23.661Z,16.70
2022-08-17T20:26:59.920Z,19.13
2022-08-17T20:29:53.862Z,19.08
2022-08-17T20:32:48.648Z,20.67
2022-08-17T20:35:16.727Z,20.83
2022-08-17T20:37:53.618Z,19.20
2022-08-17T20:40:25.841Z,20.45
2022-08-17T20:42:52.824Z,19.40
2022-08-17T20:45:23.306Z,19.60
2022-08-17T20:48:33.285Z,20.15
2022-08-17T20:50:56.212Z,20.77
2022-08-17T20:53:47.967Z,19.85
2022-08-17T20:56:43.647Z,21.27
2022-08-17T20:59:25.669Z,18.45
2022-08-17T21:02:19.328Z,20.58
2022-08-17T21:04:56.275Z,18.60
2022-08-17T21:07:33.129Z,18.60
2022-08-17T21:10:25.502Z,18.38
2022-08-17T21:13:13.246Z,18.58
2022-08-17T21:15:51.708Z,20.33
2022-08-17T21:18:43.852Z,19.05
2022-08-17T21:21:48.397Z,19.50
2022-08-17T21:24:42.397Z,18.65
2022-08-17T21:27:18.303Z,19.48
2022-08-17T21:30:01.672Z,17.38
2022-08-17T21:32:35.435Z,20.60
2022-08-17T21:35:11.284Z,19.00
2022-08-17T21:37:40.727Z,19.77
2022-08-17T21:40:10.256Z,20.42
2022-08-17T21:42:47.319Z,19.08
2022-08-17T21:45:30.851Z,20.90
2022-08-17T21:48:19.567Z,18.85
2022-08-17T21:50:59.005Z,20.17
2022-08-17T21:53:33.500Z,18.25
2022-08-17T21:56:00.679Z,19.53
2022-08-17T21:58:34.207Z,20.58
2022-08-17T22:01:24.714Z,18.98
2022-08-17T22:04:14.885Z,19.40
2022-08-17T22:06:57.386Z,21.17
2022-08-17T22:09:31.576Z,19.88
2022-08-17T22:12:01.689Z,18.25
2022-08-17T22:14:53.395Z,17.08
2022-08-17T22:17:23.054Z,21.33
2022-08-17T22:19:59.537Z,20.63
2022-08-17T22:22:32.443Z,20.10
2022-08-17T22:25:08.458Z,20.75
2022-08-17T22:28:05.951Z,20.77
2022-08-17T22:30:42.467Z,20.98
2022-08-17T22:33:36.453Z,22.30
2022-08-17T22:36:12.478Z,21.45
2022-08-17T22:38:42.002Z,24.25
2022-08-17T22:41:13.736Z,23.00
2022-08-17T22:43:43.143Z,22.70
2022-08-17T22:46:12.386Z,22.90
2022-08-17T22:48:48.488Z,22.75
2022-08-17T22:51:20.670Z,21.63
2022-08-17T22:54:09.629Z,22.02
2022-08-17T22:56:55.477Z,21.75
2022-08-17T23:02:17.297Z,21.75
2022-08-17T23:07:12.316Z,20.63
2022-08-17T23:09:39.313Z,23.80
2022-08-17T23:12:11.595Z,24.48
2022-08-17T23:14:45.286Z,23.92
2022-08-17T23:17:12.466Z,23.92
2022-08-17T23:19:39.209Z,25.00
2022-08-17T23:22:08.820Z,24.67
2022-08-17T23:24:43.821Z,22.33
2022-08-17T23:27:11.155Z,22.23
2022-08-17T23:29:41.905Z,22.88
2022-08-17T23:32:11.636Z,20.20
2022-08-17T23:34:40.087Z,23.98
2022-08-17T23:37:07.975Z,22.55
2022-08-17T23:39:35.554Z,24.63
2022-08-17T23:42:07.924Z,24.33
2022-08-17T23:44:39.392Z,23.10
2022-08-17T23:47:07.993Z,24.35
2022-08-17T23:49:36.125Z,24.85
2022-08-17T23:52:06.987Z,24.98
2022-08-17T23:54:46.512Z,24.65
2022-08-17T23:57:19.075Z,25.42
2022-08-17T23:59:46.240Z,24.17
